sensor_id;sensor_type;location;lat;lon;timestamp;P1;durP1;ratioP1;P2;durP2;ratioP2
14001;SDS011;7076;51.280;12.584;2023-09-12T00:02:29;6.63;;;4.72;;
14001;SDS011;7076;51.280;12.584;2023-09-12T00:07:34;7.20;;;4.68;;
14001;SDS011;7076;51.280;12.584;2023-09-12T00:12:37;6.78;;;4.80;;
14001;SDS011;7076;51.280;12.584;2023-09-12T00:17:40;5.78;;;4.63;;
14001;SDS011;7076;51.280;12.584;2023-09-12T00:22:45;7.38;;;4.70;;
14001;SDS011;7076;51.280;12.584;2023-09-12T00:27:48;7.35;;;5.18;;
14001;SDS011;7076;51.280;12.584;2023-09-12T00:32:51;6.72;;;5.40;;
14001;SDS011;7076;51.280;12.584;2023-09-12T00:37:55;7.90;;;4.65;;
14001;SDS011;7076;51.280;12.584;2023-09-12T00:42:59;8.38;;;4.82;;
14001;SDS011;7076;51.280;12.584;2023-09-12T00:48:02;7.35;;;5.22;;
14001;SDS011;7076;51.280;12.584;2023-09-12T00:53:08;5.63;;;5.00;;
14001;SDS011;7076;51.280;12.584;2023-09-12T00:58:11;6.15;;;5.28;;
14001;SDS011;7076;51.280;12.584;2023-09-12T01:03:14;7.53;;;5.70;;
14001;SDS011;7076;51.280;12.584;2023-09-12T01:08:18;6.80;;;4.95;;
14001;SDS011;7076;51.280;12.584;2023-09-12T01:13:21;8.68;;;4.82;;
14001;SDS011;7076;51.280;12.584;2023-09-12T01:18:25;5.85;;;4.75;;
14001;SDS011;7076;51.280;12.584;2023-09-12T01:23:33;7.82;;;4.68;;
14001;SDS011;7076;51.280;12.584;2023-09-12T01:28:44;5.45;;;4.22;;
14001;SDS011;7076;51.280;12.584;2023-09-12T01:33:47;5.57;;;5.03;;
14001;SDS011;7076;51.280;12.584;2023-09-12T01:38:50;7.70;;;4.72;;
14001;SDS011;7076;51.280;12.584;2023-09-12T01:43:54;7.03;;;4.40;;
14001;SDS011;7076;51.280;12.584;2023-09-12T01:48:58;6.05;;;5.13;;
14001;SDS011;7076;51.280;12.584;2023-09-12T01:54:01;7.68;;;5.25;;
14001;SDS011;7076;51.280;12.584;2023-09-12T01:59:07;7.38;;;4.82;;
14001;SDS011;7076;51.280;12.584;2023-09-12T02:04:10;9.43;;;4.75;;
14001;SDS011;7076;51.280;12.584;2023-09-12T02:09:13;5.97;;;4.57;;
14001;SDS011;7076;51.280;12.584;2023-09-12T02:14:17;5.28;;;4.78;;
14001;SDS011;7076;51.280;12.584;2023-09-12T02:19:20;8.15;;;5.15;;
14001;SDS011;7076;51.280;12.584;2023-09-12T02:24:23;6.85;;;4.97;;
14001;SDS011;7076;51.280;12.584;2023-09-12T02:29:27;5.45;;;4.95;;
14001;SDS011;7076;51.280;12.584;2023-09-12T02:34:30;5.80;;;5.20;;
14001;SDS011;7076;51.280;12.584;2023-09-12T02:39:33;5.50;;;4.50;;
14001;SDS011;7076;51.280;12.584;2023-09-12T02:44:37;8.23;;;4.95;;
14001;SDS011;7076;51.280;12.584;2023-09-12T02:49:40;7.20;;;4.90;;
14001;SDS011;7076;51.280;12.584;2023-09-12T02:54:43;8.80;;;6.97;;
14001;SDS011;7076;51.280;12.584;2023-09-12T02:59:47;6.53;;;5.40;;
14001;SDS011;7076;51.280;12.584;2023-09-12T03:04:50;6.47;;;5.03;;
14001;SDS011;7076;51.280;12.584;2023-09-12T03:09:54;7.40;;;4.82;;
14001;SDS011;7076;51.280;12.584;2023-09-12T03:14:59;7.63;;;6.32;;
14001;SDS011;7076;51.280;12.584;2023-09-12T03:20:02;6.50;;;5.90;;
14001;SDS011;7076;51.280;12.584;2023-09-12T03:25:08;7.90;;;5.32;;
14001;SDS011;7076;51.280;12.584;2023-09-12T03:30:13;7.85;;;5.75;;
14001;SDS011;7076;51.280;12.584;2023-09-12T03:35:16;7.35;;;5.97;;
14001;SDS011;7076;51.280;12.584;2023-09-12T03:40:19;7.57;;;5.55;;
14001;SDS011;7076;51.280;12.584;2023-09-12T03:45:24;8.88;;;5.93;;
14001;SDS011;7076;51.280;12.584;2023-09-12T03:50:27;12.38;;;5.78;;
14001;SDS011;7076;51.280;12.584;2023-09-12T03:55:30;6.57;;;5.30;;
14001;SDS011;7076;51.280;12.584;2023-09-12T04:00:35;7.45;;;5.63;;
14001;SDS011;7076;51.280;12.584;2023-09-12T04:05:38;5.65;;;5.13;;
14001;SDS011;7076;51.280;12.584;2023-09-12T04:10:40;8.48;;;5.55;;
14001;SDS011;7076;51.280;12.584;2023-09-12T04:15:45;9.13;;;6.15;;
14001;SDS011;7076;51.280;12.584;2023-09-12T04:20:48;8.80;;;6.15;;
14001;SDS011;7076;51.280;12.584;2023-09-12T04:25:51;8.82;;;7.22;;
14001;SDS011;7076;51.280;12.584;2023-09-12T04:31:07;8.43;;;6.30;;
14001;SDS011;7076;51.280;12.584;2023-09-12T04:36:10;8.30;;;6.45;;
14001;SDS011;7076;51.280;12.584;2023-09-12T04:41:13;7.28;;;6.07;;
14001;SDS011;7076;51.280;12.584;2023-09-12T04:46:19;6.90;;;6.00;;
14001;SDS011;7076;51.280;12.584;2023-09-12T04:51:22;7.45;;;6.60;;
14001;SDS011;7076;51.280;12.584;2023-09-12T04:56:26;7.90;;;6.57;;
14001;SDS011;7076;51.280;12.584;2023-09-12T05:01:30;11.20;;;6.03;;
14001;SDS011;7076;51.280;12.584;2023-09-12T05:06:33;9.60;;;6.38;;
14001;SDS011;7076;51.280;12.584;2023-09-12T05:11:36;7.68;;;6.88;;
14001;SDS011;7076;51.280;12.584;2023-09-12T05:16:43;7.43;;;6.05;;
14001;SDS011;7076;51.280;12.584;2023-09-12T05:21:45;6.93;;;6.00;;
14001;SDS011;7076;51.280;12.584;2023-09-12T05:26:48;11.88;;;6.00;;
14001;SDS011;7076;51.280;12.584;2023-09-12T05:31:53;10.45;;;5.90;;
14001;SDS011;7076;51.280;12.584;2023-09-12T05:36:57;9.75;;;6.22;;
14001;SDS011;7076;51.280;12.584;2023-09-12T05:42:00;10.30;;;6.07;;
14001;SDS011;7076;51.280;12.584;2023-09-12T05:47:04;11.05;;;6.43;;
14001;SDS011;7076;51.280;12.584;2023-09-12T05:52:08;7.60;;;6.50;;
14001;SDS011;7076;51.280;12.584;2023-09-12T05:57:12;7.00;;;6.28;;
14001;SDS011;7076;51.280;12.584;2023-09-12T06:02:16;8.40;;;6.47;;
14001;SDS011;7076;51.280;12.584;2023-09-12T06:07:20;82.53;;;20.35;;
14001;SDS011;7076;51.280;12.584;2023-09-12T06:12:22;102.57;;;26.92;;
14001;SDS011;7076;51.280;12.584;2023-09-12T06:17:27;17.92;;;7.40;;
14001;SDS011;7076;51.280;12.584;2023-09-12T06:22:30;9.73;;;6.47;;
14001;SDS011;7076;51.280;12.584;2023-09-12T06:27:33;11.75;;;6.65;;
14001;SDS011;7076;51.280;12.584;2023-09-12T06:32:38;6.32;;;5.72;;
14001;SDS011;7076;51.280;12.584;2023-09-12T06:37:41;10.18;;;6.28;;
14001;SDS011;7076;51.280;12.584;2023-09-12T06:42:44;7.43;;;6.57;;
14001;SDS011;7076;51.280;12.584;2023-09-12T06:47:48;7.82;;;5.97;;
14001;SDS011;7076;51.280;12.584;2023-09-12T06:52:51;6.90;;;5.93;;
14001;SDS011;7076;51.280;12.584;2023-09-12T06:57:56;8.80;;;6.78;;
14001;SDS011;7076;51.280;12.584;2023-09-12T07:03:00;10.70;;;6.32;;
14001;SDS011;7076;51.280;12.584;2023-09-12T07:08:04;6.97;;;6.28;;
14001;SDS011;7076;51.280;12.584;2023-09-12T07:13:07;9.07;;;6.70;;
14001;SDS011;7076;51.280;12.584;2023-09-12T07:18:11;11.55;;;6.30;;
14001;SDS011;7076;51.280;12.584;2023-09-12T07:23:14;9.73;;;5.88;;
14001;SDS011;7076;51.280;12.584;2023-09-12T07:28:16;10.25;;;5.43;;
14001;SDS011;7076;51.280;12.584;2023-09-12T07:33:21;10.60;;;7.47;;
14001;SDS011;7076;51.280;12.584;2023-09-12T07:38:24;6.72;;;5.90;;
14001;SDS011;7076;51.280;12.584;2023-09-12T07:43:27;9.77;;;5.75;;
14001;SDS011;7076;51.280;12.584;2023-09-12T07:48:31;15.18;;;5.32;;
14001;SDS011;7076;51.280;12.584;2023-09-12T07:53:34;9.55;;;5.35;;
14001;SDS011;7076;51.280;12.584;2023-09-12T07:58:37;9.77;;;5.32;;
14001;SDS011;7076;51.280;12.584;2023-09-12T08:03:41;14.20;;;5.50;;
14001;SDS011;7076;51.280;12.584;2023-09-12T08:08:45;15.50;;;4.70;;
14001;SDS011;7076;51.280;12.584;2023-09-12T08:13:48;9.23;;;5.07;;
14001;SDS011;7076;51.280;12.584;2023-09-12T08:18:53;9.35;;;4.90;;
14001;SDS011;7076;51.280;12.584;2023-09-12T08:23:56;11.23;;;5.40;;
14001;SDS011;7076;51.280;12.584;2023-09-12T08:28:59;9.77;;;5.22;;
14001;SDS011;7076;51.280;12.584;2023-09-12T08:34:03;10.52;;;5.05;;
14001;SDS011;7076;51.280;12.584;2023-09-12T08:39:06;9.93;;;5.78;;
14001;SDS011;7076;51.280;12.584;2023-09-12T08:44:13;14.63;;;5.25;;
14001;SDS011;7076;51.280;12.584;2023-09-12T08:49:17;9.45;;;5.35;;
14001;SDS011;7076;51.280;12.584;2023-09-12T08:54:20;12.30;;;5.20;;
14001;SDS011;7076;51.280;12.584;2023-09-12T08:59:23;10.98;;;4.78;;
14001;SDS011;7076;51.280;12.584;2023-09-12T09:04:30;9.27;;;4.93;;
14001;SDS011;7076;51.280;12.584;2023-09-12T09:09:33;11.35;;;5.20;;
14001;SDS011;7076;51.280;12.584;2023-09-12T09:14:36;17.52;;;5.40;;
14001;SDS011;7076;51.280;12.584;2023-09-12T09:19:44;13.68;;;5.25;;
14001;SDS011;7076;51.280;12.584;2023-09-12T09:24:48;11.95;;;5.50;;
14001;SDS011;7076;51.280;12.584;2023-09-12T09:29:53;14.50;;;5.70;;
14001;SDS011;7076;51.280;12.584;2023-09-12T09:34:57;10.45;;;4.97;;
14001;SDS011;7076;51.280;12.584;2023-09-12T09:40:00;7.65;;;4.90;;
14001;SDS011;7076;51.280;12.584;2023-09-12T09:45:06;11.35;;;5.20;;
14001;SDS011;7076;51.280;12.584;2023-09-12T09:50:11;9.50;;;5.50;;
14001;SDS011;7076;51.280;12.584;2023-09-12T09:55:16;12.80;;;6.10;;
14001;SDS011;7076;51.280;12.584;2023-09-12T10:00:22;12.07;;;6.15;;
14001;SDS011;7076;51.280;12.584;2023-09-12T10:05:26;16.83;;;6.53;;
14001;SDS011;7076;51.280;12.584;2023-09-12T10:10:31;11.63;;;6.05;;
14001;SDS011;7076;51.280;12.584;2023-09-12T10:15:36;10.70;;;6.50;;
14001;SDS011;7076;51.280;12.584;2023-09-12T10:20:42;19.50;;;6.93;;
14001;SDS011;7076;51.280;12.584;2023-09-12T10:25:47;14.80;;;6.38;;
14001;SDS011;7076;51.280;12.584;2023-09-12T10:30:51;12.30;;;7.63;;
14001;SDS011;7076;51.280;12.584;2023-09-12T10:35:57;12.57;;;6.95;;
14001;SDS011;7076;51.280;12.584;2023-09-12T10:41:00;14.45;;;6.97;;
14001;SDS011;7076;51.280;12.584;2023-09-12T10:46:03;14.38;;;6.80;;
14001;SDS011;7076;51.280;12.584;2023-09-12T10:51:07;14.70;;;7.88;;
14001;SDS011;7076;51.280;12.584;2023-09-12T10:56:14;15.75;;;6.78;;
14001;SDS011;7076;51.280;12.584;2023-09-12T11:01:22;13.90;;;6.80;;
14001;SDS011;7076;51.280;12.584;2023-09-12T11:06:29;10.50;;;6.97;;
14001;SDS011;7076;51.280;12.584;2023-09-12T11:11:48;14.63;;;6.22;;
14001;SDS011;7076;51.280;12.584;2023-09-12T11:17:12;12.50;;;6.55;;
14001;SDS011;7076;51.280;12.584;2023-09-12T11:28:03;14.98;;;5.15;;
14001;SDS011;7076;51.280;12.584;2023-09-12T11:33:08;13.15;;;5.97;;
14001;SDS011;7076;51.280;12.584;2023-09-12T11:38:14;13.38;;;5.47;;
14001;SDS011;7076;51.280;12.584;2023-09-12T11:43:29;12.27;;;5.00;;
14001;SDS011;7076;51.280;12.584;2023-09-12T11:48:33;9.05;;;5.35;;
14001;SDS011;7076;51.280;12.584;2023-09-12T11:53:37;10.43;;;5.13;;
14001;SDS011;7076;51.280;12.584;2023-09-12T11:58:40;10.05;;;5.43;;
14001;SDS011;7076;51.280;12.584;2023-09-12T12:03:43;16.15;;;5.50;;
14001;SDS011;7076;51.280;12.584;2023-09-12T12:08:48;10.27;;;4.50;;
14001;SDS011;7076;51.280;12.584;2023-09-12T12:13:55;13.55;;;4.93;;
14001;SDS011;7076;51.280;12.584;2023-09-12T12:18:58;11.68;;;4.95;;
14001;SDS011;7076;51.280;12.584;2023-09-12T12:24:03;11.82;;;4.35;;
14001;SDS011;7076;51.280;12.584;2023-09-12T12:29:08;14.00;;;4.82;;
14001;SDS011;7076;51.280;12.584;2023-09-12T12:34:11;7.03;;;4.22;;
14001;SDS011;7076;51.280;12.584;2023-09-12T12:39:35;7.88;;;4.80;;
14001;SDS011;7076;51.280;12.584;2023-09-12T12:44:38;8.57;;;3.97;;
14001;SDS011;7076;51.280;12.584;2023-09-12T12:49:42;15.35;;;4.90;;
14001;SDS011;7076;51.280;12.584;2023-09-12T12:54:47;13.13;;;7.43;;
14001;SDS011;7076;51.280;12.584;2023-09-12T12:59:55;10.00;;;4.80;;
14001;SDS011;7076;51.280;12.584;2023-09-12T13:04:58;5.75;;;4.40;;
14001;SDS011;7076;51.280;12.584;2023-09-12T13:10:03;13.15;;;5.07;;
14001;SDS011;7076;51.280;12.584;2023-09-12T13:15:07;14.32;;;5.63;;
14001;SDS011;7076;51.280;12.584;2023-09-12T13:20:10;10.80;;;4.90;;
14001;SDS011;7076;51.280;12.584;2023-09-12T13:25:15;9.90;;;4.60;;
14001;SDS011;7076;51.280;12.584;2023-09-12T13:30:18;10.77;;;4.32;;
14001;SDS011;7076;51.280;12.584;2023-09-12T13:35:24;11.48;;;6.30;;
14001;SDS011;7076;51.280;12.584;2023-09-12T13:40:30;10.70;;;4.45;;
14001;SDS011;7076;51.280;12.584;2023-09-12T13:45:33;11.98;;;5.43;;
14001;SDS011;7076;51.280;12.584;2023-09-12T13:50:36;13.45;;;4.82;;
14001;SDS011;7076;51.280;12.584;2023-09-12T13:55:41;8.45;;;4.20;;
14001;SDS011;7076;51.280;12.584;2023-09-12T14:00:51;9.07;;;4.38;;
14001;SDS011;7076;51.280;12.584;2023-09-12T14:05:54;10.05;;;4.90;;
14001;SDS011;7076;51.280;12.584;2023-09-12T14:11:02;9.02;;;4.43;;
14001;SDS011;7076;51.280;12.584;2023-09-12T14:16:07;9.63;;;4.30;;
14001;SDS011;7076;51.280;12.584;2023-09-12T14:21:10;11.15;;;4.50;;
14001;SDS011;7076;51.280;12.584;2023-09-12T14:26:15;9.70;;;5.50;;
14001;SDS011;7076;51.280;12.584;2023-09-12T14:31:19;9.23;;;3.80;;
14001;SDS011;7076;51.280;12.584;2023-09-12T14:36:22;8.52;;;3.90;;
14001;SDS011;7076;51.280;12.584;2023-09-12T14:41:26;13.63;;;8.45;;
14001;SDS011;7076;51.280;12.584;2023-09-12T14:46:29;9.70;;;4.05;;
14001;SDS011;7076;51.280;12.584;2023-09-12T14:51:32;10.70;;;3.67;;
14001;SDS011;7076;51.280;12.584;2023-09-12T14:56:37;8.65;;;4.10;;
14001;SDS011;7076;51.280;12.584;2023-09-12T15:01:40;8.95;;;3.70;;
14001;SDS011;7076;51.280;12.584;2023-09-12T15:06:43;8.50;;;4.18;;
14001;SDS011;7076;51.280;12.584;2023-09-12T15:11:48;7.55;;;3.70;;
14001;SDS011;7076;51.280;12.584;2023-09-12T15:16:51;9.95;;;3.60;;
14001;SDS011;7076;51.280;12.584;2023-09-12T15:21:54;12.55;;;3.90;;
14001;SDS011;7076;51.280;12.584;2023-09-12T15:26:58;8.07;;;3.45;;
14001;SDS011;7076;51.280;12.584;2023-09-12T15:32:01;7.15;;;3.42;;
14001;SDS011;7076;51.280;12.584;2023-09-12T15:37:07;7.80;;;4.15;;
14001;SDS011;7076;51.280;12.584;2023-09-12T15:42:24;10.57;;;4.13;;
14001;SDS011;7076;51.280;12.584;2023-09-12T15:47:38;7.38;;;3.75;;
14001;SDS011;7076;51.280;12.584;2023-09-12T15:52:41;8.20;;;4.72;;
14001;SDS011;7076;51.280;12.584;2023-09-12T15:57:45;13.35;;;5.55;;
14001;SDS011;7076;51.280;12.584;2023-09-12T16:02:48;9.40;;;5.43;;
14001;SDS011;7076;51.280;12.584;2023-09-12T16:07:54;11.00;;;5.40;;
14001;SDS011;7076;51.280;12.584;2023-09-12T16:12:59;10.60;;;4.93;;
14001;SDS011;7076;51.280;12.584;2023-09-12T16:18:03;8.30;;;4.60;;
14001;SDS011;7076;51.280;12.584;2023-09-12T16:23:06;11.40;;;4.13;;
14001;SDS011;7076;51.280;12.584;2023-09-12T16:28:10;12.35;;;4.85;;
14001;SDS011;7076;51.280;12.584;2023-09-12T16:33:13;10.77;;;5.03;;
14001;SDS011;7076;51.280;12.584;2023-09-12T16:38:16;13.30;;;4.60;;
14001;SDS011;7076;51.280;12.584;2023-09-12T16:43:20;10.20;;;4.43;;
14001;SDS011;7076;51.280;12.584;2023-09-12T16:48:23;8.02;;;4.53;;
14001;SDS011;7076;51.280;12.584;2023-09-12T16:53:26;12.40;;;4.80;;
14001;SDS011;7076;51.280;12.584;2023-09-12T16:58:30;11.93;;;4.72;;
14001;SDS011;7076;51.280;12.584;2023-09-12T17:03:34;16.98;;;5.35;;
14001;SDS011;7076;51.280;12.584;2023-09-12T17:08:37;8.88;;;5.10;;
14001;SDS011;7076;51.280;12.584;2023-09-12T17:13:41;14.07;;;6.10;;
14001;SDS011;7076;51.280;12.584;2023-09-12T17:18:44;13.80;;;4.85;;
14001;SDS011;7076;51.280;12.584;2023-09-12T17:23:47;11.90;;;5.30;;
14001;SDS011;7076;51.280;12.584;2023-09-12T17:28:52;11.07;;;5.78;;
14001;SDS011;7076;51.280;12.584;2023-09-12T17:33:54;9.85;;;5.47;;
14001;SDS011;7076;51.280;12.584;2023-09-12T17:38:58;11.23;;;5.72;;
14001;SDS011;7076;51.280;12.584;2023-09-12T17:44:03;12.18;;;5.40;;
14001;SDS011;7076;51.280;12.584;2023-09-12T17:49:06;11.55;;;5.25;;
14001;SDS011;7076;51.280;12.584;2023-09-12T17:54:09;13.10;;;5.22;;
14001;SDS011;7076;51.280;12.584;2023-09-12T17:59:13;11.55;;;4.93;;
14001;SDS011;7076;51.280;12.584;2023-09-12T18:04:17;9.90;;;4.80;;
14001;SDS011;7076;51.280;12.584;2023-09-12T18:09:20;11.20;;;5.90;;
14001;SDS011;7076;51.280;12.584;2023-09-12T18:14:24;10.52;;;5.97;;
14001;SDS011;7076;51.280;12.584;2023-09-12T18:19:26;12.20;;;6.18;;
14001;SDS011;7076;51.280;12.584;2023-09-12T18:24:29;14.55;;;6.05;;
14001;SDS011;7076;51.280;12.584;2023-09-12T18:29:36;11.05;;;5.47;;
14001;SDS011;7076;51.280;12.584;2023-09-12T18:34:39;9.20;;;5.47;;
14001;SDS011;7076;51.280;12.584;2023-09-12T18:39:42;8.00;;;6.25;;
14001;SDS011;7076;51.280;12.584;2023-09-12T18:44:46;19.00;;;5.72;;
14001;SDS011;7076;51.280;12.584;2023-09-12T18:49:49;11.77;;;6.15;;
14001;SDS011;7076;51.280;12.584;2023-09-12T18:54:52;11.88;;;5.43;;
14001;SDS011;7076;51.280;12.584;2023-09-12T19:00:11;9.05;;;6.43;;
14001;SDS011;7076;51.280;12.584;2023-09-12T19:05:21;8.85;;;6.00;;
14001;SDS011;7076;51.280;12.584;2023-09-12T19:10:24;13.70;;;6.10;;
14001;SDS011;7076;51.280;12.584;2023-09-12T19:15:31;11.70;;;6.05;;
14001;SDS011;7076;51.280;12.584;2023-09-12T19:20:41;11.93;;;6.95;;
14001;SDS011;7076;51.280;12.584;2023-09-12T19:25:44;11.90;;;6.68;;
14001;SDS011;7076;51.280;12.584;2023-09-12T19:30:51;9.40;;;6.18;;
14001;SDS011;7076;51.280;12.584;2023-09-12T19:35:54;10.00;;;5.97;;
14001;SDS011;7076;51.280;12.584;2023-09-12T19:40:57;11.50;;;6.32;;
14001;SDS011;7076;51.280;12.584;2023-09-12T19:46:02;9.85;;;6.82;;
14001;SDS011;7076;51.280;12.584;2023-09-12T19:51:05;10.98;;;6.82;;
14001;SDS011;7076;51.280;12.584;2023-09-12T19:56:08;16.13;;;6.95;;
14001;SDS011;7076;51.280;12.584;2023-09-12T20:01:13;9.00;;;6.20;;
14001;SDS011;7076;51.280;12.584;2023-09-12T20:06:16;9.35;;;5.53;;
14001;SDS011;7076;51.280;12.584;2023-09-12T20:11:19;8.80;;;5.07;;
14001;SDS011;7076;51.280;12.584;2023-09-12T20:16:23;7.43;;;5.57;;
14001;SDS011;7076;51.280;12.584;2023-09-12T20:21:26;5.78;;;4.60;;
14001;SDS011;7076;51.280;12.584;2023-09-12T20:26:32;10.10;;;4.28;;
14001;SDS011;7076;51.280;12.584;2023-09-12T20:31:39;5.82;;;4.20;;
14001;SDS011;7076;51.280;12.584;2023-09-12T20:36:41;4.57;;;4.10;;
14001;SDS011;7076;51.280;12.584;2023-09-12T20:41:44;7.82;;;3.78;;
14001;SDS011;7076;51.280;12.584;2023-09-12T20:46:49;11.48;;;6.50;;
14001;SDS011;7076;51.280;12.584;2023-09-12T20:51:54;5.22;;;3.85;;
14001;SDS011;7076;51.280;12.584;2023-09-12T20:56:57;5.93;;;3.90;;
14001;SDS011;7076;51.280;12.584;2023-09-12T21:02:06;7.00;;;4.00;;
14001;SDS011;7076;51.280;12.584;2023-09-12T21:07:09;9.57;;;4.45;;
14001;SDS011;7076;51.280;12.584;2023-09-12T21:12:11;6.38;;;3.90;;
14001;SDS011;7076;51.280;12.584;2023-09-12T21:17:16;4.78;;;3.92;;
14001;SDS011;7076;51.280;12.584;2023-09-12T21:22:18;7.45;;;4.20;;
14001;SDS011;7076;51.280;12.584;2023-09-12T21:27:21;5.75;;;4.07;;
14001;SDS011;7076;51.280;12.584;2023-09-12T21:32:26;3.67;;;3.20;;
14001;SDS011;7076;51.280;12.584;2023-09-12T21:37:28;6.22;;;3.85;;
14001;SDS011;7076;51.280;12.584;2023-09-12T21:42:34;8.07;;;3.92;;
14001;SDS011;7076;51.280;12.584;2023-09-12T21:47:38;5.30;;;3.60;;
14001;SDS011;7076;51.280;12.584;2023-09-12T21:52:43;5.07;;;3.95;;
14001;SDS011;7076;51.280;12.584;2023-09-12T21:57:45;3.78;;;3.47;;
14001;SDS011;7076;51.280;12.584;2023-09-12T22:02:50;4.22;;;3.22;;
14001;SDS011;7076;51.280;12.584;2023-09-12T22:07:54;3.88;;;3.58;;
14001;SDS011;7076;51.280;12.584;2023-09-12T22:12:56;6.13;;;3.50;;
14001;SDS011;7076;51.280;12.584;2023-09-12T22:18:01;4.25;;;3.28;;
14001;SDS011;7076;51.280;12.584;2023-09-12T22:23:04;8.77;;;3.90;;
14001;SDS011;7076;51.280;12.584;2023-09-12T22:28:06;5.20;;;3.50;;
14001;SDS011;7076;51.280;12.584;2023-09-12T22:38:47;3.60;;;3.30;;
14001;SDS011;7076;51.280;12.584;2023-09-12T22:43:50;3.83;;;3.53;;
14001;SDS011;7076;51.280;12.584;2023-09-12T22:48:54;3.40;;;3.00;;
14001;SDS011;7076;51.280;12.584;2023-09-12T22:53:57;4.70;;;3.00;;
14001;SDS011;7076;51.280;12.584;2023-09-12T22:59:00;5.82;;;3.33;;
14001;SDS011;7076;51.280;12.584;2023-09-12T23:04:05;3.83;;;3.20;;
14001;SDS011;7076;51.280;12.584;2023-09-12T23:09:08;5.28;;;3.55;;
14001;SDS011;7076;51.280;12.584;2023-09-12T23:14:11;4.63;;;3.80;;
14001;SDS011;7076;51.280;12.584;2023-09-12T23:19:16;4.60;;;3.60;;
14001;SDS011;7076;51.280;12.584;2023-09-12T23:24:18;5.28;;;3.40;;
14001;SDS011;7076;51.280;12.584;2023-09-12T23:29:21;5.22;;;3.42;;
14001;SDS011;7076;51.280;12.584;2023-09-12T23:34:25;5.22;;;3.17;;
14001;SDS011;7076;51.280;12.584;2023-09-12T23:39:29;5.93;;;3.63;;
14001;SDS011;7076;51.280;12.584;2023-09-12T23:44:32;5.03;;;3.53;;
14001;SDS011;7076;51.280;12.584;2023-09-12T23:49:36;4.00;;;3.50;;
14001;SDS011;7076;51.280;12.584;2023-09-12T23:54:39;8.35;;;4.20;;
14001;SDS011;7076;51.280;12.584;2023-09-12T23:59:42;11.38;;;4.15;;
